Time;durP1;ratioP1;P1;durP2;ratioP2;P2;SDS_P1;SDS_P2;PMS_P1;PMS_P2;Temp;Humidity;BMP_temperature;BMP_pressure;BME280_temperature;BME280_humidity;BME280_pressure;Samples;Min_cycle;Max_cycle;Signal;HPM_P1;HPM_P2
2021/05/18 03:02:52;;;;;;;12.43;9.17;;;;;;;16.32;100.00;99349.97;1735746;80;21148;-75
2021/05/18 03:05:21;;;;;;;10.77;7.63;;;;;;;16.34;100.00;99352.38;1722366;81;21064;-76
2021/05/18 03:07:51;;;;;;;12.37;7.90;;;;;;;16.33;100.00;99356.84;1730549;80;21011;-75
2021/05/18 03:10:17;;;;;;;13.27;7.93;;;;;;;16.35;100.00;99360.53;1737078;80;22194;-77
2021/05/18 03:12:44;;;;;;;10.57;7.93;;;;;;;16.35;100.00;99366.59;1730852;80;20954;-75
2021/05/18 03:15:14;;;;;;;12.13;8.23;;;;;;;16.38;100.00;99365.31;1725542;80;21578;-75
2021/05/18 03:17:41;;;;;;;11.60;9.13;;;;;;;16.39;100.00;99361.11;1748490;80;20974;-69
2021/05/18 03:20:14;;;;;;;9.97;7.27;;;;;;;16.43;100.00;99368.00;1727969;80;21918;-73
2021/05/18 03:22:41;;;;;;;10.40;7.97;;;;;;;16.43;100.00;99371.42;1722172;81;21104;-73
2021/05/18 03:25:09;;;;;;;11.10;7.47;;;;;;;16.43;100.00;99375.89;1728213;80;22018;-76
2021/05/18 03:27:36;;;;;;;11.23;7.40;;;;;;;16.41;100.00;99383.25;1737962;80;21534;-75
2021/05/18 03:35:26;;;;;;;10.60;8.53;;;;;;;16.45;100.00;99426.44;1730508;80;21100;-73
2021/05/18 03:37:58;;;;;;;11.43;8.10;;;;;;;16.48;100.00;99433.86;1729373;80;21001;-73
2021/05/18 03:40:26;;;;;;;9.40;6.60;;;;;;;16.51;100.00;99447.30;1739689;80;25172;-74
2021/05/18 03:43:01;;;;;;;9.77;7.10;;;;;;;16.50;100.00;99458.08;1726500;81;21366;-71
2021/05/18 03:45:24;;;;;;;11.43;8.53;;;;;;;16.48;100.00;99465.42;1731552;80;20994;-74
2021/05/18 03:53:36;;;;;;;23.87;18.27;;;;;;;16.47;100.00;99473.02;1733014;80;20974;-72
2021/05/18 04:04:16;;;;;;;20.77;14.17;;;;;;;16.29;100.00;99451.20;1714869;81;21052;-72
2021/05/18 04:12:28;;;;;;;19.47;14.47;;;;;;;16.31;100.00;99440.44;1715141;81;20949;-69
2021/05/18 04:17:30;;;;;;;24.30;17.60;;;;;;;16.30;100.00;99437.02;1695110;83;20973;-71
2021/05/18 04:20:16;;;;;;;17.80;13.47;;;;;;;16.28;100.00;99429.86;1706736;81;21555;-73
2021/05/18 04:51:35;;;;;;;9.33;6.40;;;;;;;16.40;100.00;99427.17;1705339;82;21417;-73
2021/05/18 04:54:42;;;;;;;7.87;5.90;;;;;;;16.40;100.00;99429.80;1678640;83;21124;-71
2021/05/18 05:07:31;;;;;;;7.53;4.43;;;;;;;16.57;100.00;99415.29;1752434;79;21102;-69
2021/05/18 05:09:52;;;;;;;6.00;4.27;;;;;;;16.67;100.00;99414.64;1767720;79;21764;-73
2021/05/18 05:14:50;;;;;;;6.63;4.90;;;;;;;16.91;100.00;99402.06;1756155;79;21844;-70
2021/05/18 05:17:18;;;;;;;5.40;4.27;;;;;;;17.08;100.00;99391.45;1739456;78;21675;-71
2021/05/18 05:19:45;;;;;;;4.50;3.50;;;;;;;17.25;100.00;99390.34;1754082;79;22322;-72
2021/05/18 05:22:13;;;;;;;5.07;3.50;;;;;;;17.46;100.00;99393.16;1766583;79;21113;-69
2021/05/18 05:24:41;;;;;;;3.77;2.67;;;;;;;17.78;100.00;99380.58;1738032;79;21551;-73
2021/05/18 05:27:08;;;;;;;4.13;2.50;;;;;;;18.27;100.00;99377.76;1757933;79;21805;-74
2021/05/18 05:29:35;;;;;;;3.30;2.20;;;;;;;18.69;100.00;99375.06;1744501;79;21012;-72
2021/05/18 05:32:02;;;;;;;3.37;1.97;;;;;;;18.96;100.00;99373.61;1742006;80;21910;-73
2021/05/18 05:34:28;;;;;;;3.17;1.50;;;;;;;19.07;100.00;99366.52;1745270;78;20941;-75
2021/05/18 05:36:55;;;;;;;2.70;1.80;;;;;;;19.10;100.00;99358.86;1759124;79;21101;-73
2021/05/18 05:39:23;;;;;;;3.40;1.90;;;;;;;19.06;100.00;99355.16;1751254;79;20989;-69
2021/05/18 05:41:55;;;;;;;3.40;1.70;;;;;;;18.91;100.00;99345.87;1758376;78;20970;-75
2021/05/18 05:44:22;;;;;;;4.80;1.70;;;;;;;18.76;100.00;99349.26;1759610;79;21083;-69
2021/05/18 05:46:49;;;;;;;2.97;1.87;;;;;;;18.70;100.00;99349.75;1763947;79;21071;-77
2021/05/18 05:49:16;;;;;;;3.80;1.90;;;;;;;18.71;100.00;99346.08;1737997;79;21131;-77
2021/05/18 05:51:43;;;;;;;3.53;2.10;;;;;;;18.74;100.00;99342.11;1751802;79;21070;-68
2021/05/18 05:54:10;;;;;;;3.07;1.70;;;;;;;18.75;100.00;99339.73;1759761;79;21498;-75
2021/05/18 05:56:36;;;;;;;4.23;1.63;;;;;;;18.73;100.00;99342.38;1746142;79;21071;-79
2021/05/18 05:59:06;;;;;;;2.67;1.97;;;;;;;18.65;100.00;99339.68;1748133;79;21069;-78
2021/05/18 06:01:32;;;;;;;3.73;2.30;;;;;;;18.57;100.00;99343.61;1754424;78;21041;-75
2021/05/18 06:04:00;;;;;;;2.77;2.00;;;;;;;18.46;100.00;99346.72;1752430;79;21066;-75
2021/05/18 06:06:27;;;;;;;4.80;2.20;;;;;;;18.42;100.00;99340.91;1737586;80;21378;-71
2021/05/18 06:08:55;;;;;;;4.00;2.27;;;;;;;18.48;100.00;99337.22;1755814;79;21073;-76
2021/05/18 06:48:57;;;;;;;6.03;3.43;;;;;;;19.86;100.00;99337.53;1756563;79;21130;-76
2021/05/18 06:51:24;;;;;;;5.67;3.40;;;;;;;19.69;100.00;99337.26;1748521;80;20937;-74
2021/05/18 06:53:51;;;;;;;5.50;3.30;;;;;;;19.58;100.00;99338.28;1749032;80;21048;-78
2021/05/18 06:56:18;;;;;;;4.83;3.10;;;;;;;19.53;100.00;99337.51;1758182;79;21362;-75
2021/05/18 07:01:11;;;;;;;6.40;3.50;;;;;;;19.58;100.00;99331.68;1733421;79;22314;-75
2021/05/18 07:03:48;;;;;;;5.00;3.37;;;;;;;19.58;100.00;99340.93;1731621;79;21688;-74
2021/05/18 07:08:55;;;;;;;5.37;3.10;;;;;;;19.80;100.00;99334.62;1712132;80;21001;-79
2021/05/18 07:11:24;;;;;;;5.20;3.17;;;;;;;19.93;100.00;99340.16;1728111;80;36650;-74
2021/05/18 07:13:53;;;;;;;5.50;3.27;;;;;;;20.06;100.00;99334.84;1729709;80;21614;-71
2021/05/18 07:16:19;;;;;;;6.20;3.47;;;;;;;20.18;100.00;99330.05;1716291;81;21005;-75
2021/05/18 07:18:46;;;;;;;5.30;3.33;;;;;;;20.34;100.00;99333.97;1725666;80;21104;-77
2021/05/18 07:21:12;;;;;;;4.17;3.30;;;;;;;20.53;100.00;99327.08;1719279;80;21138;-75
2021/05/18 07:23:39;;;;;;;5.00;3.37;;;;;;;20.76;100.00;99327.48;1700504;83;21530;-79
2021/05/18 07:26:07;;;;;;;5.97;3.57;;;;;;;21.05;100.00;99328.38;1722200;80;21025;-73
2021/05/18 07:28:35;;;;;;;5.73;3.50;;;;;;;21.36;100.00;99325.55;1725621;80;21017;-79
2021/05/18 07:31:04;;;;;;;6.30;3.53;;;;;;;21.53;100.00;99321.19;1725249;81;21036;-77
2021/05/18 07:33:32;;;;;;;4.17;3.27;;;;;;;21.66;100.00;99313.11;1724154;80;21116;-74
2021/05/18 07:36:01;;;;;;;5.10;3.40;;;;;;;21.85;100.00;99313.99;1731742;81;20985;-76
2021/05/18 07:38:28;;;;;;;5.93;3.50;;;;;;;22.02;100.00;99313.03;1722111;80;21084;-79
2021/05/18 07:40:56;;;;;;;6.43;3.27;;;;;;;22.05;100.00;99319.11;1726777;81;21665;-79
2021/05/18 07:43:23;;;;;;;4.63;3.20;;;;;;;22.05;100.00;99320.44;1725246;80;20953;-77
2021/05/18 07:46:00;;;;;;;4.90;3.57;;;;;;;22.07;100.00;99322.27;1736719;80;20977;-79
2021/05/18 07:48:29;;;;;;;5.30;3.37;;;;;;;22.15;100.00;99320.09;1737745;80;21594;-74
2021/05/18 08:07:03;;;;;;;3.83;3.13;;;;;;;22.40;100.00;99319.03;1708289;81;20965;-79
2021/05/18 08:09:35;;;;;;;4.90;2.80;;;;;;;22.72;100.00;99322.33;1716005;81;20981;-77
2021/05/18 08:12:01;;;;;;;4.30;3.00;;;;;;;22.93;100.00;99311.72;1707784;81;20992;-76
2021/05/18 08:14:28;;;;;;;4.37;2.80;;;;;;;23.16;100.00;99308.72;1710723;81;21141;-77
2021/05/18 08:55:53;;;;;;;5.10;3.30;;;;;;;23.73;100.00;99329.92;1753941;80;20981;-64
2021/05/18 10:36:13;;;;;;;4.07;2.83;;;;;;;24.09;100.00;99331.92;1725030;81;21234;-67
2021/05/18 10:38:46;;;;;;;4.90;3.30;;;;;;;24.20;100.00;99333.31;1723355;81;21657;-67
2021/05/18 10:41:25;;;;;;;10.43;7.97;;;;;;;24.39;100.00;99334.03;1730113;81;21101;-67
2021/05/18 10:43:59;;;;;;;6.20;4.67;;;;;;;24.72;100.00;99335.23;1718104;81;21084;-67
2021/05/18 10:46:28;;;;;;;4.50;2.93;;;;;;;25.07;100.00;99329.66;1736597;80;21084;-66
2021/05/18 10:49:06;;;;;;;3.83;2.90;;;;;;;25.40;100.00;99326.25;1740480;80;22047;-65
2021/05/18 10:51:39;;;;;;;3.40;2.55;;;;;;;25.73;100.00;99320.09;1740953;80;21010;-65
2021/05/18 10:54:21;;;;;;;3.33;2.27;;;;;;;26.23;100.00;99323.08;1744571;79;21020;-67
2021/05/18 10:57:01;;;;;;;3.80;2.55;;;;;;;26.62;100.00;99318.80;1756088;79;21089;-64
2021/05/18 10:59:43;;;;;;;5.12;2.10;;;;;;;26.88;96.99;99316.93;1748614;80;21075;-63
2021/05/18 11:02:35;;;;;;;3.20;2.25;;;;;;;27.11;92.86;99322.16;1747180;80;21134;-65
2021/05/18 11:05:05;;;;;;;2.75;2.10;;;;;;;27.02;88.81;99318.67;1733063;80;21121;-64
2021/05/18 11:07:37;;;;;;;3.98;2.40;;;;;;;26.69;90.75;99315.89;1733518;80;21086;-63
2021/05/18 11:10:20;;;;;;;6.22;2.58;;;;;;;26.39;95.62;99311.41;1735413;81;21576;-65
2021/05/18 11:12:51;;;;;;;3.27;2.20;;;;;;;26.28;96.52;99302.89;1750924;80;21042;-65
2021/05/18 11:15:23;;;;;;;3.00;2.00;;;;;;;26.18;97.38;99303.20;1749081;80;21658;-67
2021/05/18 11:18:12;;;;;;;3.12;2.17;;;;;;;26.05;97.10;99297.41;1753957;80;20965;-64
2021/05/18 11:23:27;;;;;;;3.90;2.50;;;;;;;26.01;100.00;99303.12;1767929;79;21636;-64
2021/05/18 11:26:05;;;;;;;4.12;2.67;;;;;;;26.11;96.28;99294.30;1766907;80;21186;-64
2021/05/18 11:28:49;;;;;;;3.72;2.58;;;;;;;26.28;97.90;99286.86;1762668;80;21120;-64
2021/05/18 11:31:20;;;;;;;4.58;2.80;;;;;;;26.53;92.22;99281.37;1766767;80;21583;-67
2021/05/18 11:33:48;;;;;;;4.13;2.63;;;;;;;26.75;92.21;99281.79;1757860;80;22799;-67
2021/05/18 11:36:18;;;;;;;4.58;2.50;;;;;;;26.95;85.26;99284.93;1753228;80;21087;-64
2021/05/18 11:38:57;;;;;;;3.60;2.20;;;;;;;27.03;83.40;99277.45;1759394;80;21864;-68
2021/05/18 11:41:31;;;;;;;4.03;2.30;;;;;;;27.09;81.64;99275.64;1755795;80;21174;-70
2021/05/18 11:43:59;;;;;;;4.15;2.60;;;;;;;27.08;82.61;99274.60;1759663;79;20969;-67
2021/05/18 11:46:29;;;;;;;4.47;2.33;;;;;;;27.04;77.51;99275.78;1771765;79;20996;-69
2021/05/18 11:49:07;;;;;;;3.45;2.25;;;;;;;27.00;81.27;99268.72;1781246;79;21523;-67
2021/05/18 11:51:51;;;;;;;3.22;2.42;;;;;;;26.91;80.69;99261.48;1756152;80;22228;-70
2021/05/18 11:54:20;;;;;;;5.60;2.27;;;;;;;26.92;82.67;99265.73;1755326;80;21682;-67
2021/05/18 11:56:50;;;;;;;3.67;2.58;;;;;;;27.03;85.43;99256.83;1755775;80;21048;-70
2021/05/18 11:59:19;;;;;;;4.00;2.12;;;;;;;27.18;81.67;99256.92;1739276;80;21000;-68
2021/05/18 12:01:53;;;;;;;3.72;2.40;;;;;;;27.32;79.95;99256.19;1765361;80;20978;-64
2021/05/18 12:04:23;;;;;;;4.00;2.35;;;;;;;27.43;77.24;99255.30;1747074;80;22215;-69
2021/05/18 12:06:57;;;;;;;4.17;2.60;;;;;;;27.55;72.34;99255.97;1738517;80;21144;-69
2021/05/18 12:09:25;;;;;;;3.85;1.95;;;;;;;27.41;69.79;99250.25;1759075;80;21002;-71
2021/05/18 12:11:59;;;;;;;5.10;2.52;;;;;;;27.10;70.92;99242.42;1760052;80;20957;-69
2021/05/18 12:14:28;;;;;;;3.17;1.90;;;;;;;26.83;72.24;99247.58;1761585;80;21137;-68
2021/05/18 12:16:56;;;;;;;3.65;2.10;;;;;;;26.62;73.06;99243.95;1749981;80;21520;-70
2021/05/18 12:19:23;;;;;;;3.20;2.22;;;;;;;26.62;74.63;99238.05;1756201;80;21085;-72
2021/05/18 12:21:54;;;;;;;3.62;2.05;;;;;;;26.77;76.48;99236.80;1744938;80;20969;-68
2021/05/18 12:24:25;;;;;;;4.75;2.05;;;;;;;26.90;77.65;99240.42;1725760;80;21110;-68
2021/05/18 12:27:02;;;;;;;4.45;2.22;;;;;;;26.99;75.31;99245.75;1745950;80;21040;-69
2021/05/18 12:29:41;;;;;;;3.42;2.15;;;;;;;27.10;72.70;99249.67;1741390;80;21112;-72
2021/05/18 12:32:26;;;;;;;4.00;2.30;;;;;;;27.08;71.85;99237.94;1741721;80;21190;-67
2021/05/18 12:34:57;;;;;;;2.95;2.25;;;;;;;27.03;74.61;99244.80;1742431;80;21145;-70
2021/05/18 12:37:32;;;;;;;;;;;;;;;27.06;72.24;99243.39;1745268;80;21127;-70
2021/05/18 12:39:59;;;;;;;3.92;2.60;;;;;;;26.99;74.11;99245.75;1744740;80;20234;-67
2021/05/18 12:42:27;;;;;;;4.20;2.87;;;;;;;26.85;78.37;99245.91;1748603;80;21147;-68
2021/05/18 12:45:00;;;;;;;6.15;2.90;;;;;;;26.78;73.00;99245.59;1717988;82;21088;-72
2021/05/18 12:47:35;;;;;;;4.80;3.33;;;;;;;26.55;77.38;99248.97;1724134;81;21109;-70
2021/05/18 12:50:09;;;;;;;5.28;3.33;;;;;;;26.37;80.37;99254.28;1750856;80;20894;-70
2021/05/18 12:52:41;;;;;;;5.22;3.50;;;;;;;26.17;88.00;99251.63;1744480;80;21108;-71
2021/05/18 12:55:30;;;;;;;4.92;3.12;;;;;;;26.16;89.34;99252.73;1711943;81;21029;-71
2021/05/18 12:58:04;;;;;;;4.08;2.90;;;;;;;26.23;91.03;99250.95;1722870;81;21116;-72
2021/05/18 13:00:39;;;;;;;4.55;2.60;;;;;;;26.32;88.72;99253.63;1761039;80;20965;-66
2021/05/18 13:03:18;;;;;;;5.92;2.72;;;;;;;26.24;86.07;99247.73;1762552;80;21008;-68
2021/05/18 13:05:47;;;;;;;3.72;2.70;;;;;;;25.92;89.83;99245.69;1764523;79;21119;-70
2021/05/18 13:08:20;;;;;;;3.85;2.90;;;;;;;25.65;91.63;99250.67;1755602;80;21606;-64
2021/05/18 13:13:48;;;;;;;5.07;3.17;;;;;;;25.08;98.39;99253.11;1720383;82;21431;-70
2021/05/18 13:16:26;;;;;;;4.63;3.00;;;;;;;24.96;100.00;99254.99;1710688;82;21069;-72
2021/05/18 13:19:09;;;;;;;6.93;3.60;;;;;;;24.88;97.77;99253.84;1759644;80;20930;-73
2021/05/18 13:21:53;;;;;;;6.90;3.67;;;;;;;24.67;99.19;99253.53;1757810;80;21038;-76
2021/05/18 13:26:57;;;;;;;10.53;3.43;;;;;;;24.09;100.00;99239.53;1756931;80;20973;-66
2021/05/18 13:29:25;;;;;;;5.53;3.73;;;;;;;23.86;100.00;99245.84;1765188;80;21517;-74
2021/05/18 13:31:54;;;;;;;5.53;3.57;;;;;;;23.83;100.00;99245.91;1760622;80;20967;-74
2021/05/18 13:34:21;;;;;;;4.13;3.50;;;;;;;23.83;100.00;99243.77;1746377;80;21597;-76
2021/05/18 13:36:49;;;;;;;4.17;2.80;;;;;;;23.76;100.00;99244.97;1744639;80;22102;-70
2021/05/18 13:39:20;;;;;;;4.77;2.80;;;;;;;23.75;100.00;99242.59;1761188;80;21542;-75
2021/05/18 13:41:50;;;;;;;4.80;2.90;;;;;;;23.86;100.00;99239.20;1750497;80;21021;-67
2021/05/18 13:44:17;;;;;;;3.97;2.27;;;;;;;23.91;100.00;99239.12;1748923;80;21638;-74
2021/05/18 13:46:47;;;;;;;4.20;2.77;;;;;;;23.94;100.00;99247.30;1760903;80;21610;-68
2021/05/18 13:49:14;;;;;;;3.33;2.40;;;;;;;23.91;100.00;99250.55;1723797;81;21159;-74
2021/05/18 13:51:45;;;;;;;3.80;2.33;;;;;;;23.77;100.00;99262.50;1725632;81;21686;-77
2021/05/18 13:54:13;;;;;;;3.23;1.90;;;;;;;23.53;100.00;99265.31;1735223;81;21128;-77
2021/05/18 13:56:41;;;;;;;6.87;2.57;;;;;;;23.12;100.00;99272.38;1730087;81;21125;-74
2021/05/18 13:59:08;;;;;;;2.50;1.70;;;;;;;22.57;100.00;99271.52;1739635;81;21028;-77
2021/05/18 14:01:35;;;;;;;3.60;1.77;;;;;;;22.06;100.00;99271.59;1733736;81;22079;-72
2021/05/18 14:04:02;;;;;;;2.93;1.50;;;;;;;21.65;100.00;99277.84;1739952;80;20950;-74
2021/05/18 14:06:30;;;;;;;1.83;1.20;;;;;;;21.35;100.00;99282.88;1731907;81;21049;-77
2021/05/18 14:08:58;;;;;;;2.37;1.60;;;;;;;21.13;100.00;99272.67;1721753;81;21076;-63
2021/05/18 14:11:24;;;;;;;4.40;2.10;;;;;;;20.99;100.00;99284.45;1733139;81;21005;-76
2021/05/18 14:13:54;;;;;;;3.20;1.47;;;;;;;20.85;100.00;99286.13;1741930;81;21109;-77
2021/05/18 14:16:22;;;;;;;4.23;1.83;;;;;;;20.73;100.00;99298.91;1735879;81;20977;-72
2021/05/18 14:18:55;;;;;;;3.43;1.90;;;;;;;20.55;100.00;99304.29;1738850;81;21054;-77
2021/05/18 14:21:23;;;;;;;2.17;1.37;;;;;;;20.28;100.00;99300.66;1696336;82;21014;-73
2021/05/18 14:26:19;;;;;;;5.90;1.50;;;;;;;19.77;100.00;99309.48;1712302;82;21274;-76
2021/05/18 14:28:47;;;;;;;3.10;1.60;;;;;;;19.58;100.00;99307.89;1731440;81;21162;-75
2021/05/18 14:31:13;;;;;;;3.83;1.27;;;;;;;19.43;100.00;99310.53;1710302;81;21090;-69
2021/05/18 14:33:41;;;;;;;2.20;1.20;;;;;;;19.34;100.00;99305.52;1722609;82;21826;-66
2021/05/18 14:36:08;;;;;;;6.30;1.40;;;;;;;19.32;100.00;99307.62;1703915;82;21828;-70
2021/05/18 14:38:37;;;;;;;2.73;1.70;;;;;;;19.29;100.00;99306.84;1726807;81;21165;-68
2021/05/18 14:56:37;;;;;;;2.87;1.80;;;;;;;18.85;100.00;99320.50;1731362;81;21597;-68
2021/05/18 14:59:04;;;;;;;3.70;1.93;;;;;;;18.89;100.00;99316.28;1691173;83;20998;-64
2021/05/18 15:01:30;;;;;;;4.47;2.13;;;;;;;18.94;100.00;99307.86;1710226;82;20968;-69
2021/05/18 15:03:57;;;;;;;4.23;2.70;;;;;;;18.97;100.00;99313.13;1713081;82;22169;-74
2021/05/18 15:06:24;;;;;;;4.87;2.40;;;;;;;18.99;100.00;99308.39;1716660;82;20975;-71
2021/05/18 15:08:51;;;;;;;6.17;2.33;;;;;;;18.94;100.00;99300.44;1741666;80;20965;-69
2021/05/18 15:11:18;;;;;;;6.17;2.27;;;;;;;18.93;100.00;99297.01;1753430;80;20965;-62
2021/05/18 15:13:45;;;;;;;3.70;2.30;;;;;;;18.96;100.00;99297.02;1746849;80;21386;-68
2021/05/18 15:16:12;;;;;;;7.90;5.80;;;;;;;19.00;100.00;99294.66;1749293;80;21059;-70
2021/05/18 15:18:39;;;;;;;9.77;6.80;;;;;;;19.03;100.00;99289.64;1745555;80;20853;-67
2021/05/18 15:21:05;;;;;;;7.63;5.83;;;;;;;19.05;100.00;99290.16;1757274;80;21116;-62
2021/05/18 15:23:34;;;;;;;8.93;5.23;;;;;;;19.07;100.00;99284.63;1706248;82;21657;-71
2021/05/18 15:26:00;;;;;;;6.03;4.10;;;;;;;19.06;100.00;99274.59;1712839;82;21542;-68
2021/05/18 15:28:27;;;;;;;5.93;3.23;;;;;;;19.04;100.00;99283.30;1708907;82;21063;-70
2021/05/18 15:30:55;;;;;;;8.13;3.67;;;;;;;18.99;100.00;99277.23;1721649;82;21704;-67
2021/05/18 15:33:22;;;;;;;7.07;4.40;;;;;;;18.98;100.00;99283.55;1702700;80;21009;-62
2021/05/18 15:35:50;;;;;;;7.83;4.43;;;;;;;18.96;100.00;99280.64;1745867;80;21088;-69
2021/05/18 15:38:16;;;;;;;6.17;4.57;;;;;;;19.00;100.00;99276.95;1757490;80;21024;-68
2021/05/18 15:40:44;;;;;;;6.80;4.57;;;;;;;19.03;100.00;99280.40;1700379;81;21702;-73
2021/05/18 15:43:12;;;;;;;8.67;4.93;;;;;;;19.05;100.00;99276.95;1698701;81;20969;-60
2021/05/18 15:45:38;;;;;;;6.93;5.00;;;;;;;19.07;100.00;99283.31;1681470;83;21017;-57
2021/05/18 15:48:07;;;;;;;7.57;5.20;;;;;;;19.06;100.00;99281.73;1686925;82;21126;-56
2021/05/18 15:50:34;;;;;;;6.47;4.60;;;;;;;19.05;100.00;99279.59;1687937;83;21660;-57
2021/05/18 15:53:01;;;;;;;8.20;4.97;;;;;;;19.05;100.00;99276.95;1688055;82;23104;-57
2021/05/18 15:55:27;;;;;;;9.67;5.50;;;;;;;19.06;100.00;99273.80;1686058;82;21075;-59
2021/05/18 15:57:54;;;;;;;12.03;5.77;;;;;;;19.05;100.00;99274.84;1685277;82;21132;-58
2021/05/18 16:00:22;;;;;;;9.23;5.03;;;;;;;19.06;100.00;99273.80;1688684;82;20981;-58
2021/05/18 16:02:48;;;;;;;6.70;4.50;;;;;;;19.04;100.00;99272.73;1687086;83;21052;-58
2021/05/18 16:05:15;;;;;;;6.20;4.30;;;;;;;19.01;100.00;99270.61;1689638;82;21081;-62
2021/05/18 16:07:44;;;;;;;5.33;4.10;;;;;;;18.98;100.00;99270.34;1689643;81;21545;-58
2021/05/18 16:10:10;;;;;;;6.57;4.80;;;;;;;18.93;100.00;99266.64;1709950;81;21032;-57
2021/05/18 16:12:37;;;;;;;5.57;4.60;;;;;;;18.90;100.00;99263.72;1699256;82;21658;-58
2021/05/18 16:15:06;;;;;;;6.40;5.30;;;;;;;18.87;100.00;99272.19;1700808;82;20981;-60
2021/05/18 16:17:32;;;;;;;7.27;4.77;;;;;;;18.80;100.00;99272.44;1697885;82;21158;-57
2021/05/18 16:20:00;;;;;;;6.07;4.67;;;;;;;18.73;100.00;99275.06;1694704;82;21068;-62
2021/05/18 16:22:27;;;;;;;12.17;5.37;;;;;;;18.63;100.00;99270.50;1743670;80;21082;-64
2021/05/18 16:24:54;;;;;;;6.57;5.70;;;;;;;18.55;100.00;99263.09;1746543;80;21073;-61
2021/05/18 16:27:21;;;;;;;9.97;5.70;;;;;;;18.45;100.00;99266.51;1758040;80;21005;-63
2021/05/18 16:29:48;;;;;;;6.60;5.43;;;;;;;18.36;100.00;99265.41;1755002;80;21109;-62
2021/05/18 16:32:14;;;;;;;6.67;5.90;;;;;;;18.28;100.00;99264.05;1747767;80;21039;-63
2021/05/18 16:34:41;;;;;;;8.47;6.40;;;;;;;18.20;100.00;99260.06;1745786;80;21024;-63
2021/05/18 16:37:08;;;;;;;10.67;5.30;;;;;;;18.11;100.00;99263.47;1760063;80;20896;-62
2021/05/18 16:39:34;;;;;;;9.03;7.30;;;;;;;18.06;100.00;99270.80;1757535;80;21146;-63
2021/05/18 16:42:02;;;;;;;8.40;5.77;;;;;;;18.00;100.00;99269.20;1745008;80;21096;-61
2021/05/18 16:44:29;;;;;;;8.63;6.23;;;;;;;17.95;100.00;99266.52;1776855;80;21001;-61
2021/05/18 16:46:58;;;;;;;9.47;6.70;;;;;;;17.89;100.00;99273.62;1755663;80;21079;-61
2021/05/18 16:49:25;;;;;;;9.17;7.20;;;;;;;17.85;100.00;99269.13;1752593;80;21000;-62
2021/05/18 16:51:51;;;;;;;12.70;6.87;;;;;;;17.81;100.00;99264.88;1747980;80;20968;-61
2021/05/18 16:54:18;;;;;;;7.57;5.03;;;;;;;17.78;100.00;99268.02;1775756;80;21000;-62
2021/05/18 16:56:46;;;;;;;5.90;4.53;;;;;;;17.78;100.00;99265.38;1745580;80;21724;-63
2021/05/18 16:59:13;;;;;;;8.37;5.17;;;;;;;17.78;100.00;99264.06;1763560;80;21633;-60
2021/05/18 17:01:40;;;;;;;7.20;5.37;;;;;;;17.79;100.00;99258.27;1757190;80;21346;-63
2021/05/18 17:04:06;;;;;;;6.10;4.90;;;;;;;17.79;100.00;99259.05;1757613;80;21594;-61
2021/05/18 17:06:34;;;;;;;8.17;4.93;;;;;;;17.79;100.00;99256.95;1744973;80;22528;-63
2021/05/18 17:09:01;;;;;;;6.37;4.27;;;;;;;17.78;100.00;99258.80;1753629;80;22400;-60
2021/05/18 17:11:27;;;;;;;7.30;4.80;;;;;;;17.77;100.00;99258.53;1752840;80;20969;-61
2021/05/18 17:13:54;;;;;;;12.80;5.20;;;;;;;17.73;100.00;99262.70;1732876;82;20970;-63
2021/05/18 17:16:20;;;;;;;8.03;5.20;;;;;;;17.70;100.00;99263.20;1727530;81;21510;-60
2021/05/18 17:18:47;;;;;;;6.30;4.70;;;;;;;17.64;100.00;99257.08;1738294;81;21119;-62
2021/05/18 17:21:14;;;;;;;5.67;4.27;;;;;;;17.57;100.00;99263.09;1736732;81;21007;-60
2021/05/18 17:23:41;;;;;;;9.97;4.17;;;;;;;17.50;100.00;99265.14;1740667;80;21064;-62
2021/05/18 17:26:11;;;;;;;5.90;4.10;;;;;;;17.42;100.00;99261.66;1750655;81;20921;-61
2021/05/18 17:28:40;;;;;;;6.13;4.47;;;;;;;17.35;100.00;99263.71;1739040;80;21024;-62
2021/05/18 17:31:08;;;;;;;9.53;5.00;;;;;;;17.32;100.00;99270.30;1753441;80;21086;-61
2021/05/18 17:33:36;;;;;;;6.77;4.93;;;;;;;17.33;100.00;99268.45;1739739;81;21112;-62
2021/05/18 17:36:05;;;;;;;7.13;4.50;;;;;;;17.32;100.00;99272.14;1754798;80;21637;-64
2021/05/18 17:38:31;;;;;;;7.50;3.97;;;;;;;17.29;100.00;99270.00;1741448;80;21569;-65
2021/05/18 17:40:58;;;;;;;7.20;4.40;;;;;;;17.26;100.00;99270.77;1748475;80;20960;-65
2021/05/18 17:43:26;;;;;;;6.60;5.07;;;;;;;17.21;100.00;99268.63;1756128;80;21074;-62
2021/05/18 17:45:54;;;;;;;6.37;4.70;;;;;;;17.13;100.00;99268.55;1744547;80;21023;-62
2021/05/18 17:48:21;;;;;;;5.20;4.10;;;;;;;17.05;100.00;99269.02;1726352;81;21658;-64
2021/05/18 17:50:49;;;;;;;5.53;3.67;;;;;;;16.98;100.00;99274.47;1745543;81;21088;-64
2021/05/18 17:53:16;;;;;;;7.07;4.80;;;;;;;16.91;100.00;99277.03;1733302;81;20946;-62
2021/05/18 17:55:44;;;;;;;6.63;4.33;;;;;;;16.85;100.00;99274.06;1755473;80;21061;-63
2021/05/18 17:58:12;;;;;;;8.23;4.53;;;;;;;16.76;100.00;99275.83;1752609;80;20930;-61
2021/05/18 18:00:39;;;;;;;4.23;2.97;;;;;;;16.69;100.00;99280.98;1756307;80;20993;-65
2021/05/18 18:03:05;;;;;;;6.47;4.23;;;;;;;16.61;100.00;99278.78;1705610;81;21087;-63
2021/05/18 18:05:32;;;;;;;6.43;4.10;;;;;;;16.54;100.00;99285.55;1766531;80;21513;-61
2021/05/18 18:07:59;;;;;;;7.63;4.80;;;;;;;16.47;100.00;99281.78;1762063;80;21146;-64
2021/05/18 18:10:29;;;;;;;6.57;3.93;;;;;;;16.43;100.00;99287.78;1767554;80;21013;-62
2021/05/18 18:12:56;;;;;;;6.03;3.73;;;;;;;16.37;100.00;99283.52;1751537;80;20958;-61
2021/05/18 18:15:24;;;;;;;6.60;4.53;;;;;;;16.34;100.00;99287.94;1762195;80;20977;-62
2021/05/18 18:17:52;;;;;;;7.60;4.40;;;;;;;16.28;100.00;99286.55;1767841;80;20948;-62
2021/05/18 18:20:19;;;;;;;6.37;3.67;;;;;;;16.23;100.00;99289.12;1745435;80;21062;-60
2021/05/18 18:22:45;;;;;;;6.70;4.33;;;;;;;16.19;100.00;99285.39;1766662;80;21014;-61
2021/05/18 18:25:12;;;;;;;8.83;4.83;;;;;;;16.16;100.00;99292.97;1745529;80;20945;-60
2021/05/18 18:27:39;;;;;;;6.87;4.17;;;;;;;16.14;100.00;99287.14;1766398;80;21101;-62
2021/05/18 18:30:07;;;;;;;8.13;4.17;;;;;;;16.10;100.00;99285.55;1758567;80;21029;-60
2021/05/18 18:32:35;;;;;;;5.60;3.80;;;;;;;16.05;100.00;99290.71;1755478;80;21656;-62
2021/05/18 18:35:03;;;;;;;7.93;4.30;;;;;;;15.99;100.00;99281.97;1732918;81;20948;-61
2021/05/18 18:37:34;;;;;;;7.07;4.20;;;;;;;15.93;100.00;99287.39;1742914;81;21004;-62
2021/05/18 18:39:58;;;;;;;7.03;3.90;;;;;;;15.87;100.00;99291.77;1732012;81;20949;-61
2021/05/18 18:42:24;;;;;;;7.27;3.97;;;;;;;15.83;100.00;99286.72;1746292;81;20989;-61
2021/05/18 18:44:51;;;;;;;7.47;4.50;;;;;;;15.77;100.00;99287.17;1729172;81;21109;-62
2021/05/18 18:47:18;;;;;;;6.70;4.10;;;;;;;15.72;100.00;99285.80;1728356;82;21049;-61
2021/05/18 18:49:48;;;;;;;7.23;3.37;;;;;;;15.66;100.00;99288.06;1765750;80;21035;-62
2021/05/18 18:52:23;;;;;;;9.70;4.70;;;;;;;15.63;100.00;99293.75;1769336;80;20889;-62
2021/05/18 18:54:41;;;;;;;7.27;4.23;;;;;;;15.59;100.00;99284.77;1766391;80;20944;-61
2021/05/18 18:57:08;;;;;;;6.87;3.83;;;;;;;15.55;100.00;99290.22;1770038;80;21091;-63
2021/05/18 18:59:34;;;;;;;6.27;3.63;;;;;;;15.50;100.00;99295.41;1772601;80;20996;-63
2021/05/18 19:02:04;;;;;;;6.27;4.10;;;;;;;15.43;100.00;99295.55;1746065;80;21039;-64
2021/05/18 19:04:37;;;;;;;6.17;4.10;;;;;;;15.37;100.00;99293.08;1775611;80;21004;-63
2021/05/18 19:07:17;;;;;;;8.00;3.37;;;;;;;15.30;100.00;99290.10;1770002;80;21598;-62
2021/05/18 19:14:44;;;;;;;7.10;3.60;;;;;;;15.18;100.00;99277.53;1771147;80;21002;-61
2021/05/18 19:17:11;;;;;;;4.57;3.00;;;;;;;15.15;100.00;99283.25;1771960;80;20991;-61
2021/05/18 19:19:39;;;;;;;7.30;4.00;;;;;;;15.14;100.00;99284.30;1759120;80;21609;-62
2021/05/18 19:22:06;;;;;;;9.10;4.97;;;;;;;15.12;100.00;99292.94;1754810;80;21061;-60
2021/05/18 19:24:34;;;;;;;8.50;5.00;;;;;;;15.13;100.00;99296.35;1739268;81;21579;-62
2021/05/18 19:27:01;;;;;;;9.83;5.00;;;;;;;15.13;100.00;99292.41;1741141;80;21021;-60
2021/05/18 19:29:27;;;;;;;9.93;5.03;;;;;;;15.13;100.00;99294.52;1708244;82;21098;-61
2021/05/18 19:31:55;;;;;;;9.90;5.37;;;;;;;15.14;100.00;99290.86;1697527;82;20960;-61
2021/05/18 19:34:26;;;;;;;8.97;5.10;;;;;;;15.15;100.00;99289.02;1711356;82;21113;-61